createdAt,value
2018-12-16T00:02:10.039Z,11.87
2018-12-16T00:04:36.645Z,10.90
2018-12-16T00:07:03.257Z,10.67
2018-12-16T00:09:29.844Z,10.50
2018-12-16T00:11:56.437Z,11.07
2018-12-16T00:14:23.127Z,11.80
2018-12-16T00:16:49.730Z,12.07
2018-12-16T00:19:16.330Z,12.83
2018-12-16T00:21:42.928Z,12.40
2018-12-16T00:24:09.512Z,11.37
2018-12-16T00:26:42.140Z,12.40
2018-12-16T00:29:08.720Z,12.30
2018-12-16T00:31:35.412Z,11.67
2018-12-16T00:34:02.385Z,12.43
2018-12-16T00:36:28.997Z,13.27
2018-12-16T00:38:55.576Z,12.53
2018-12-16T00:41:22.268Z,12.20
2018-12-16T00:43:48.880Z,12.83
2018-12-16T00:46:15.544Z,12.10
2018-12-16T00:48:42.125Z,12.63
2018-12-16T00:51:08.825Z,12.57
2018-12-16T00:53:35.461Z,11.60
2018-12-16T00:56:02.102Z,12.03
2018-12-16T00:58:28.728Z,12.97
2018-12-16T01:00:55.370Z,12.80
2018-12-16T01:03:22.009Z,11.63
2018-12-16T01:05:48.625Z,10.20
2018-12-16T01:08:15.276Z,11.93
2018-12-16T01:10:41.916Z,11.20
2018-12-16T01:13:08.559Z,11.47
2018-12-16T01:15:35.189Z,11.57
2018-12-16T01:18:02.022Z,13.03
2018-12-16T01:20:28.633Z,10.80
2018-12-16T01:22:55.308Z,11.13
2018-12-16T01:25:21.888Z,11.73
2018-12-16T01:27:48.477Z,11.13
2018-12-16T01:30:15.069Z,11.03
2018-12-16T01:32:41.696Z,11.47
2018-12-16T01:35:08.289Z,10.67
2018-12-16T01:37:34.897Z,9.13
2018-12-16T01:40:01.536Z,10.67
2018-12-16T01:42:28.148Z,11.10
2018-12-16T01:44:54.722Z,9.67
2018-12-16T01:47:21.372Z,11.17
2018-12-16T01:49:48.001Z,11.27
2018-12-16T01:52:14.601Z,10.37
2018-12-16T01:54:41.696Z,11.90
2018-12-16T01:57:08.313Z,13.13
2018-12-16T01:59:35.304Z,11.07
2018-12-16T02:02:01.890Z,10.13
2018-12-16T02:04:28.505Z,10.60
2018-12-16T02:06:55.176Z,10.27
2018-12-16T02:09:21.817Z,10.87
2018-12-16T02:11:48.448Z,11.70
2018-12-16T02:14:15.038Z,11.90
2018-12-16T02:16:41.652Z,10.90
2018-12-16T02:19:08.262Z,11.40
2018-12-16T02:21:34.864Z,11.47
2018-12-16T02:24:01.445Z,11.60
2018-12-16T02:26:28.020Z,12.27
2018-12-16T02:28:54.628Z,11.13
2018-12-16T02:31:21.210Z,11.73
2018-12-16T02:33:47.883Z,13.23
2018-12-16T02:36:14.590Z,12.07
2018-12-16T02:38:41.261Z,13.80
2018-12-16T02:41:07.975Z,12.93
2018-12-16T02:43:34.626Z,12.70
2018-12-16T02:46:01.272Z,12.63
2018-12-16T02:48:28.545Z,13.17
2018-12-16T02:50:55.273Z,12.47
2018-12-16T02:53:22.002Z,10.40
2018-12-16T02:55:48.596Z,12.07
2018-12-16T02:58:15.178Z,12.77
2018-12-16T03:00:42.828Z,10.50
2018-12-16T03:03:09.469Z,13.07
2018-12-16T03:05:37.157Z,13.60
2018-12-16T03:08:03.782Z,13.73
2018-12-16T03:10:30.406Z,12.33
2018-12-16T03:12:57.049Z,14.47
2018-12-16T03:15:24.568Z,14.67
2018-12-16T03:17:51.237Z,12.50
2018-12-16T03:20:17.845Z,14.70
2018-12-16T03:22:44.449Z,15.60
2018-12-16T03:25:11.032Z,16.27
2018-12-16T03:27:38.185Z,14.37
2018-12-16T03:30:06.369Z,14.57
2018-12-16T03:32:33.109Z,15.90
2018-12-16T03:34:59.687Z,15.40
2018-12-16T03:37:26.369Z,13.83
2018-12-16T03:39:52.983Z,14.07
2018-12-16T03:42:19.577Z,15.10
2018-12-16T03:44:46.585Z,15.77
2018-12-16T03:47:13.237Z,14.77
2018-12-16T03:49:39.833Z,15.50
2018-12-16T03:52:07.033Z,14.77
2018-12-16T03:54:33.866Z,15.20
2018-12-16T03:57:00.448Z,15.37
2018-12-16T03:59:27.053Z,16.67
2018-12-16T04:01:54.639Z,15.77
2018-12-16T04:04:21.325Z,14.80
2018-12-16T04:06:47.957Z,14.87
2018-12-16T04:09:14.539Z,14.80
2018-12-16T04:11:41.139Z,14.00
2018-12-16T04:14:07.780Z,14.57
2018-12-16T04:16:34.417Z,14.60
2018-12-16T04:19:01.969Z,15.07
2018-12-16T04:21:28.618Z,14.60
2018-12-16T04:23:55.589Z,15.20
2018-12-16T04:26:22.193Z,13.43
2018-12-16T04:28:49.610Z,14.13
2018-12-16T04:31:16.245Z,14.40
2018-12-16T04:33:43.021Z,15.60
2018-12-16T04:36:09.662Z,14.17
2018-12-16T04:38:36.402Z,15.30
2018-12-16T04:41:03.047Z,14.80
2018-12-16T04:43:29.702Z,13.53
2018-12-16T04:45:56.409Z,13.73
2018-12-16T04:48:23.045Z,14.13
2018-12-16T04:50:49.689Z,13.80
2018-12-16T04:53:16.365Z,13.70
2018-12-16T04:55:43.098Z,14.83
2018-12-16T04:58:09.669Z,14.63
2018-12-16T05:00:37.206Z,15.17
2018-12-16T05:03:03.892Z,15.77
2018-12-16T05:05:30.532Z,16.93
2018-12-16T05:07:57.169Z,16.80
2018-12-16T05:10:25.769Z,16.00
2018-12-16T05:12:52.390Z,17.50
2018-12-16T05:15:19.025Z,14.90
2018-12-16T05:17:45.633Z,14.83
2018-12-16T05:20:12.305Z,15.47
2018-12-16T05:22:39.040Z,15.50
2018-12-16T05:25:05.621Z,15.10
2018-12-16T05:27:32.197Z,14.50
2018-12-16T05:29:58.797Z,14.97
2018-12-16T05:32:25.397Z,14.40
2018-12-16T05:34:51.976Z,14.53
2018-12-16T05:37:18.576Z,14.27
2018-12-16T05:39:45.156Z,14.60
2018-12-16T05:42:11.751Z,13.90
2018-12-16T05:44:38.386Z,13.03
2018-12-16T05:47:05.096Z,14.87
2018-12-16T05:49:31.676Z,14.10
2018-12-16T05:51:58.272Z,14.23
2018-12-16T05:54:24.913Z,13.70
2018-12-16T05:56:51.492Z,14.17
2018-12-16T05:59:19.293Z,14.03
2018-12-16T06:01:45.945Z,13.83
2018-12-16T06:04:12.545Z,14.00
2018-12-16T06:06:39.901Z,14.67
2018-12-16T06:09:06.525Z,13.70
2018-12-16T06:11:33.124Z,13.30
2018-12-16T06:13:59.752Z,14.37
2018-12-16T06:16:26.987Z,13.10
2018-12-16T06:18:53.638Z,13.97
2018-12-16T06:21:20.220Z,14.30
2018-12-16T06:23:46.814Z,13.57
2018-12-16T06:26:13.448Z,14.00
2018-12-16T06:28:40.084Z,13.70
2018-12-16T06:31:06.685Z,14.00
2018-12-16T06:33:33.265Z,13.73
2018-12-16T06:35:59.996Z,12.83
2018-12-16T06:38:26.625Z,12.80
2018-12-16T06:40:53.205Z,12.57
2018-12-16T06:43:19.801Z,12.30
2018-12-16T06:45:46.434Z,12.97
2018-12-16T06:48:13.019Z,14.90
2018-12-16T06:50:39.849Z,14.73
2018-12-16T06:53:06.444Z,13.97
2018-12-16T06:55:33.955Z,11.60
2018-12-16T06:58:00.564Z,12.33
2018-12-16T07:00:27.163Z,13.00
2018-12-16T07:02:53.765Z,13.87
2018-12-16T07:05:20.656Z,16.10
2018-12-16T07:07:47.297Z,14.30
2018-12-16T07:10:13.902Z,16.37
2018-12-16T07:12:40.704Z,14.17
2018-12-16T07:15:07.424Z,15.00
2018-12-16T07:17:34.219Z,14.13
2018-12-16T07:20:00.828Z,13.63
2018-12-16T07:22:27.536Z,13.90
2018-12-16T07:24:54.193Z,13.60
2018-12-16T07:27:20.849Z,13.07
2018-12-16T07:29:47.506Z,12.10
2018-12-16T07:32:14.178Z,12.53
2018-12-16T07:34:40.808Z,11.90
2018-12-16T07:37:07.408Z,12.90
2018-12-16T07:39:34.402Z,12.80
2018-12-16T07:42:01.179Z,12.90
2018-12-16T07:44:27.846Z,13.03
2018-12-16T07:46:54.645Z,12.73
2018-12-16T07:49:21.303Z,12.33
2018-12-16T07:51:48.855Z,13.50
2018-12-16T07:54:16.135Z,12.83
2018-12-16T07:56:43.123Z,12.03
2018-12-16T07:59:10.339Z,12.90
2018-12-16T08:01:36.996Z,12.37
2018-12-16T08:04:03.610Z,12.37
2018-12-16T08:06:30.368Z,12.10
2018-12-16T08:08:56.977Z,12.33
2018-12-16T08:11:23.655Z,12.90
2018-12-16T08:13:50.238Z,13.10
2018-12-16T08:16:16.845Z,12.53
2018-12-16T08:18:43.445Z,12.67
2018-12-16T08:21:10.044Z,12.70
2018-12-16T08:23:36.626Z,12.17
2018-12-16T08:26:03.252Z,12.53
2018-12-16T08:28:29.858Z,13.57
2018-12-16T08:30:56.440Z,13.03
2018-12-16T08:33:23.038Z,12.73
2018-12-16T08:35:49.653Z,12.87
2018-12-16T08:38:16.257Z,12.90
2018-12-16T08:40:42.847Z,12.30
2018-12-16T08:43:09.561Z,12.07
2018-12-16T08:45:36.229Z,12.57
2018-12-16T08:48:02.836Z,12.10
2018-12-16T08:50:29.421Z,13.10
2018-12-16T08:52:56.018Z,12.70
2018-12-16T08:55:22.621Z,12.73
2018-12-16T08:57:49.209Z,12.27
2018-12-16T09:00:15.941Z,12.93
2018-12-16T09:02:42.496Z,13.57
2018-12-16T09:05:09.100Z,12.27
2018-12-16T09:07:37.419Z,13.47
2018-12-16T09:10:05.697Z,13.43
2018-12-16T09:12:32.297Z,14.80
2018-12-16T09:14:58.901Z,14.37
2018-12-16T09:17:25.889Z,14.47
2018-12-16T09:19:52.612Z,16.07
2018-12-16T09:22:19.309Z,15.80
2018-12-16T09:24:45.897Z,15.53
2018-12-16T09:27:12.510Z,16.37
2018-12-16T09:29:39.321Z,15.43
2018-12-16T09:32:05.892Z,15.67
2018-12-16T09:34:32.492Z,15.37
2018-12-16T09:36:59.097Z,15.83
2018-12-16T09:39:25.677Z,15.80
2018-12-16T09:41:52.273Z,14.50
2018-12-16T09:44:18.852Z,15.53
2018-12-16T09:46:45.525Z,13.67
2018-12-16T09:49:12.077Z,15.50
2018-12-16T09:51:38.705Z,16.33
2018-12-16T09:54:05.293Z,15.53
2018-12-16T09:56:31.892Z,16.40
2018-12-16T09:58:58.473Z,14.87
2018-12-16T10:01:25.072Z,16.07
2018-12-16T10:03:51.664Z,15.20
2018-12-16T10:06:18.245Z,15.87
2018-12-16T10:08:44.848Z,15.23
2018-12-16T10:11:11.429Z,15.00
2018-12-16T10:13:38.016Z,15.90
2018-12-16T10:16:04.616Z,14.67
2018-12-16T10:18:31.235Z,15.33
2018-12-16T10:20:57.836Z,15.53
2018-12-16T10:23:24.421Z,15.27
2018-12-16T10:25:51.017Z,15.83
2018-12-16T10:28:17.680Z,14.57
2018-12-16T10:30:44.311Z,15.13
2018-12-16T10:33:11.728Z,15.10
2018-12-16T10:35:38.353Z,15.53
2018-12-16T10:38:04.966Z,15.50
2018-12-16T10:40:31.550Z,13.43
2018-12-16T10:42:58.153Z,14.73
2018-12-16T10:45:24.914Z,16.13
2018-12-16T10:47:51.469Z,15.47
2018-12-16T10:50:18.129Z,14.40
2018-12-16T10:52:44.732Z,15.37
2018-12-16T10:55:11.328Z,15.23
2018-12-16T10:57:37.929Z,13.90
2018-12-16T11:00:08.261Z,14.67
2018-12-16T11:02:34.857Z,14.53
2018-12-16T11:05:01.464Z,15.03
2018-12-16T11:07:28.096Z,14.77
2018-12-16T11:09:54.705Z,13.80
2018-12-16T11:12:21.638Z,13.90
2018-12-16T11:14:48.332Z,14.73
2018-12-16T11:17:14.936Z,14.27
2018-12-16T11:19:41.517Z,14.67
2018-12-16T11:22:08.136Z,14.37
2018-12-16T11:24:34.744Z,15.20
2018-12-16T11:27:01.328Z,14.07
2018-12-16T11:29:27.984Z,14.30
2018-12-16T11:31:54.572Z,14.00
2018-12-16T11:34:21.156Z,14.73
2018-12-16T11:36:47.760Z,14.70
2018-12-16T11:39:14.340Z,14.93
2018-12-16T11:41:40.942Z,13.37
2018-12-16T11:44:07.525Z,14.67
2018-12-16T11:46:34.126Z,14.40
2018-12-16T11:49:00.713Z,13.67
2018-12-16T11:51:27.345Z,15.13
2018-12-16T11:53:53.933Z,13.70
2018-12-16T11:56:20.549Z,15.13
2018-12-16T11:58:47.133Z,15.00
2018-12-16T12:01:13.832Z,14.57
2018-12-16T12:03:40.388Z,14.67
2018-12-16T12:06:06.968Z,14.50
2018-12-16T12:08:33.565Z,14.43
2018-12-16T12:11:00.144Z,15.37
2018-12-16T12:13:26.744Z,15.53
2018-12-16T12:15:53.336Z,15.50
2018-12-16T12:18:19.977Z,14.33
2018-12-16T12:20:46.628Z,15.20
2018-12-16T12:23:13.217Z,14.53
2018-12-16T12:25:39.811Z,15.00
2018-12-16T12:28:06.741Z,14.67
2018-12-16T12:30:33.369Z,15.53
2018-12-16T12:32:59.954Z,14.83
2018-12-16T12:35:26.586Z,15.50
2018-12-16T12:37:53.213Z,14.93
2018-12-16T12:40:19.821Z,16.07
2018-12-16T12:42:46.474Z,15.93
2018-12-16T12:45:13.092Z,16.23
2018-12-16T12:47:39.665Z,15.40
2018-12-16T12:50:06.663Z,15.90
2018-12-16T12:52:33.266Z,15.40
2018-12-16T12:54:59.836Z,14.87
2018-12-16T12:57:26.481Z,15.53
2018-12-16T12:59:53.061Z,16.20
2018-12-16T13:02:19.652Z,16.03
2018-12-16T13:04:46.253Z,16.27
2018-12-16T13:07:12.838Z,16.17
2018-12-16T13:09:39.474Z,15.03
2018-12-16T13:12:06.165Z,16.17
2018-12-16T13:14:32.852Z,15.53
2018-12-16T13:16:59.460Z,16.57
2018-12-16T13:19:26.061Z,15.07
2018-12-16T13:21:52.684Z,15.33
2018-12-16T13:24:19.291Z,16.00
2018-12-16T13:26:45.881Z,16.57
2018-12-16T13:29:12.472Z,16.23
2018-12-16T13:31:39.081Z,16.80
2018-12-16T13:34:05.669Z,16.43
2018-12-16T13:36:32.270Z,16.87
2018-12-16T13:38:58.849Z,17.30
2018-12-16T13:41:25.446Z,16.67
2018-12-16T13:43:52.048Z,17.07
2018-12-16T13:46:18.658Z,16.43
2018-12-16T13:48:45.259Z,16.70
2018-12-16T13:51:11.880Z,16.27
2018-12-16T13:53:38.449Z,17.47
2018-12-16T13:56:05.044Z,17.03
2018-12-16T13:58:31.649Z,17.20
2018-12-16T14:00:58.228Z,17.27
2018-12-16T14:03:24.837Z,18.00
2018-12-16T14:05:51.428Z,17.47
2018-12-16T14:08:18.008Z,15.97
2018-12-16T14:10:44.589Z,17.03
2018-12-16T14:13:11.187Z,16.77
2018-12-16T14:15:37.793Z,16.57
2018-12-16T14:18:04.420Z,17.10
2018-12-16T14:20:31.057Z,17.77
2018-12-16T14:22:57.636Z,17.30
2018-12-16T14:25:24.241Z,16.50
2018-12-16T14:27:50.825Z,16.80
2018-12-16T14:30:17.405Z,17.87
2018-12-16T14:32:44.041Z,17.20
2018-12-16T14:35:11.172Z,17.37
2018-12-16T14:37:37.776Z,16.80
2018-12-16T14:40:05.580Z,17.03
2018-12-16T14:42:32.162Z,16.23
2018-12-16T14:44:58.757Z,15.50
2018-12-16T14:47:25.346Z,16.70
2018-12-16T14:49:51.986Z,18.17
2018-12-16T14:52:18.560Z,16.53
2018-12-16T14:54:45.142Z,16.17
2018-12-16T14:57:11.744Z,15.67
2018-12-16T14:59:38.328Z,15.00
2018-12-16T15:02:04.957Z,17.33
2018-12-16T15:04:31.552Z,16.23
2018-12-16T15:06:58.208Z,16.40
2018-12-16T15:09:24.897Z,16.17
2018-12-16T15:11:51.477Z,15.90
2018-12-16T15:14:18.061Z,16.27
2018-12-16T15:16:44.656Z,15.47
2018-12-16T15:19:11.261Z,15.60
2018-12-16T15:21:37.864Z,15.83
2018-12-16T15:24:04.468Z,15.53
2018-12-16T15:26:31.040Z,16.00
2018-12-16T15:28:57.669Z,15.73
2018-12-16T15:31:24.316Z,15.00
2018-12-16T15:33:50.901Z,15.50
2018-12-16T15:36:17.480Z,15.63
2018-12-16T15:38:44.110Z,15.90
2018-12-16T15:41:10.801Z,16.63
2018-12-16T15:43:37.414Z,15.40
2018-12-16T15:46:04.023Z,15.23
2018-12-16T15:48:30.601Z,16.70
2018-12-16T15:50:57.201Z,16.63
2018-12-16T15:53:23.785Z,17.30
2018-12-16T15:55:50.393Z,15.70
2018-12-16T15:58:16.972Z,17.63
2018-12-16T16:00:43.576Z,16.33
2018-12-16T16:03:10.153Z,16.73
2018-12-16T16:05:36.749Z,16.60
2018-12-16T16:08:03.361Z,17.20
2018-12-16T16:10:30.000Z,16.47
2018-12-16T16:12:56.581Z,16.87
2018-12-16T16:15:23.178Z,16.77
2018-12-16T16:17:49.772Z,16.73
2018-12-16T16:20:16.354Z,18.13
2018-12-16T16:22:42.957Z,16.50
2018-12-16T16:25:09.584Z,18.63
2018-12-16T16:27:36.202Z,18.60
2018-12-16T16:30:03.749Z,17.73
2018-12-16T16:32:30.330Z,18.13
2018-12-16T16:34:56.929Z,18.27
2018-12-16T16:37:23.536Z,17.40
2018-12-16T16:39:50.112Z,18.20
2018-12-16T16:42:16.702Z,19.57
2018-12-16T16:44:43.306Z,17.27
2018-12-16T16:47:09.872Z,16.87
2018-12-16T16:49:36.476Z,15.87
2018-12-16T16:52:03.117Z,16.97
2018-12-16T16:54:29.718Z,16.87
2018-12-16T16:56:56.301Z,16.13
2018-12-16T16:59:22.917Z,16.67
2018-12-16T17:01:49.497Z,16.23
2018-12-16T17:04:16.125Z,16.47
2018-12-16T17:06:42.707Z,16.57
2018-12-16T17:09:09.369Z,16.73
2018-12-16T17:11:35.943Z,17.37
2018-12-16T17:14:02.638Z,16.97
2018-12-16T17:16:29.236Z,16.77
2018-12-16T17:18:57.260Z,17.33
2018-12-16T17:21:23.889Z,16.23
2018-12-16T17:23:50.472Z,16.57
2018-12-16T17:26:17.073Z,17.93
2018-12-16T17:28:43.682Z,16.17
2018-12-16T17:31:10.331Z,16.77
2018-12-16T17:33:36.932Z,17.27
2018-12-16T17:36:03.590Z,17.63
2018-12-16T17:38:30.193Z,18.60
2018-12-16T17:40:56.809Z,18.53
2018-12-16T17:43:23.413Z,17.67
2018-12-16T17:45:49.993Z,17.03
2018-12-16T17:48:16.625Z,17.57
2018-12-16T17:50:43.317Z,17.90
2018-12-16T17:53:09.920Z,18.23
2018-12-16T17:55:36.502Z,18.17
2018-12-16T17:58:03.217Z,17.90
2018-12-16T18:00:29.828Z,17.40
2018-12-16T18:02:56.410Z,17.43
2018-12-16T18:05:22.991Z,17.47
2018-12-16T18:07:49.597Z,18.13
2018-12-16T18:10:16.192Z,17.43
2018-12-16T18:12:42.857Z,17.10
2018-12-16T18:15:09.485Z,17.30
2018-12-16T18:17:36.089Z,17.13
2018-12-16T18:20:03.701Z,17.10
2018-12-16T18:22:30.305Z,17.43
2018-12-16T18:24:56.895Z,17.70
2018-12-16T18:27:23.541Z,17.63
2018-12-16T18:29:50.117Z,17.97
2018-12-16T18:32:16.701Z,17.43
2018-12-16T18:34:43.310Z,17.93
2018-12-16T18:37:09.888Z,16.53
2018-12-16T18:39:36.532Z,16.60
2018-12-16T18:42:03.391Z,16.80
2018-12-16T18:44:29.968Z,16.90
2018-12-16T18:46:56.572Z,15.93
2018-12-16T18:49:23.144Z,15.60
2018-12-16T18:51:49.724Z,16.47
2018-12-16T18:54:16.327Z,15.37
2018-12-16T18:56:42.935Z,16.43
2018-12-16T18:59:09.604Z,15.67
2018-12-16T19:01:36.189Z,16.27
2018-12-16T19:04:02.816Z,15.40
2018-12-16T19:06:29.401Z,16.47
2018-12-16T19:08:56.012Z,14.97
2018-12-16T19:11:22.641Z,15.70
2018-12-16T19:13:49.541Z,15.10
2018-12-16T19:16:17.956Z,14.93
2018-12-16T19:21:31.985Z,15.23
2018-12-16T19:24:01.938Z,16.57
2018-12-16T19:26:30.469Z,17.10
2018-12-16T19:28:59.605Z,16.07
2018-12-16T19:31:28.416Z,16.00
2018-12-16T19:33:55.313Z,14.90
2018-12-16T19:36:21.902Z,15.07
2018-12-16T19:38:49.671Z,16.07
2018-12-16T19:41:16.270Z,14.83
2018-12-16T19:43:45.643Z,15.00
2018-12-16T19:46:14.205Z,15.20
2018-12-16T19:48:45.142Z,16.00
2018-12-16T19:51:14.905Z,16.97
2018-12-16T19:53:42.684Z,16.43
2018-12-16T19:56:12.761Z,16.00
2018-12-16T20:01:12.058Z,16.60
2018-12-16T20:03:40.582Z,16.53
2018-12-16T20:06:12.998Z,15.77
2018-12-16T20:08:39.589Z,16.83
2018-12-16T20:11:06.173Z,14.87
2018-12-16T20:13:32.781Z,15.53
2018-12-16T20:16:01.592Z,15.43
2018-12-16T20:18:27.954Z,15.77
2018-12-16T20:20:54.565Z,15.80
2018-12-16T20:23:21.165Z,16.57
2018-12-16T20:25:47.793Z,16.87
2018-12-16T20:28:14.372Z,16.07
2018-12-16T20:30:40.985Z,16.87
2018-12-16T20:33:07.564Z,16.30
2018-12-16T20:35:34.372Z,17.37
2018-12-16T20:38:01.208Z,16.97
2018-12-16T20:40:28.120Z,16.53
2018-12-16T20:42:54.845Z,16.40
2018-12-16T20:45:21.428Z,17.23
2018-12-16T20:47:48.031Z,16.27
2018-12-16T20:50:14.637Z,15.60
2018-12-16T20:52:41.285Z,16.07
2018-12-16T20:55:07.892Z,15.23
2018-12-16T20:57:34.498Z,15.03
2018-12-16T21:00:01.077Z,14.57
2018-12-16T21:02:27.677Z,14.83
2018-12-16T21:04:54.277Z,15.00
2018-12-16T21:07:20.904Z,15.43
2018-12-16T21:09:47.484Z,15.17
2018-12-16T21:12:19.874Z,15.07
2018-12-16T21:14:52.265Z,14.93
2018-12-16T21:20:25.299Z,16.03
2018-12-16T21:22:51.916Z,15.97
2018-12-16T21:25:18.524Z,16.40
2018-12-16T21:27:45.178Z,15.60
2018-12-16T21:30:11.778Z,14.93
2018-12-16T21:32:38.384Z,15.70
2018-12-16T21:35:05.396Z,14.83
2018-12-16T21:37:33.233Z,15.03
2018-12-16T21:39:59.989Z,14.60
2018-12-16T21:42:26.590Z,14.60
2018-12-16T21:44:53.199Z,14.63
2018-12-16T21:47:19.797Z,14.87
2018-12-16T21:49:46.380Z,14.17
2018-12-16T21:52:12.984Z,15.30
2018-12-16T21:54:39.568Z,15.10
2018-12-16T21:57:06.224Z,15.73
2018-12-16T21:59:33.036Z,13.90
2018-12-16T22:01:59.637Z,14.50
2018-12-16T22:04:26.228Z,14.50
2018-12-16T22:06:52.836Z,15.27
2018-12-16T22:09:19.425Z,13.80
2018-12-16T22:11:46.052Z,14.33
2018-12-16T22:14:12.655Z,14.23
2018-12-16T22:16:39.245Z,14.37
2018-12-16T22:19:05.924Z,14.13
2018-12-16T22:21:32.560Z,14.37
2018-12-16T22:23:59.160Z,13.83
2018-12-16T22:26:25.744Z,14.43
2018-12-16T22:28:52.362Z,14.33
2018-12-16T22:31:18.936Z,14.73
2018-12-16T22:33:45.557Z,14.23
2018-12-16T22:36:12.156Z,13.77
2018-12-16T22:38:38.782Z,14.07
2018-12-16T22:41:05.508Z,13.73
2018-12-16T22:43:32.112Z,14.33
2018-12-16T22:45:58.777Z,14.07
2018-12-16T22:48:25.356Z,15.13
2018-12-16T22:50:51.941Z,13.47
2018-12-16T22:53:18.521Z,14.07
2018-12-16T22:55:45.125Z,14.10
2018-12-16T22:58:11.725Z,15.23
2018-12-16T23:00:40.273Z,15.03
2018-12-16T23:03:06.871Z,15.90
2018-12-16T23:05:33.476Z,15.87
2018-12-16T23:08:00.052Z,15.47
2018-12-16T23:10:26.649Z,14.43
2018-12-16T23:12:53.245Z,15.33
2018-12-16T23:15:19.837Z,14.93
2018-12-16T23:17:46.417Z,15.20
2018-12-16T23:20:25.800Z,14.10
2018-12-16T23:22:52.404Z,15.17
2018-12-16T23:25:19.010Z,14.43
2018-12-16T23:27:45.615Z,14.33
2018-12-16T23:30:12.216Z,15.50
2018-12-16T23:32:38.797Z,16.17
2018-12-16T23:35:05.420Z,15.10
2018-12-16T23:37:32.008Z,15.43
2018-12-16T23:39:58.629Z,15.57
2018-12-16T23:42:25.233Z,15.10
2018-12-16T23:44:51.837Z,14.57
2018-12-16T23:47:18.471Z,15.33
2018-12-16T23:49:45.053Z,14.80
2018-12-16T23:52:11.680Z,14.73
2018-12-16T23:54:38.276Z,15.43
2018-12-16T23:57:04.855Z,16.43
2018-12-16T23:59:31.469Z,16.30
